Time;durP1;ratioP1;P1;durP2;ratioP2;P2;SDS_P1;SDS_P2;PMS_P1;PMS_P2;Temp;Humidity;BMP_temperature;BMP_pressure;BME280_temperature;BME280_humidity;BME280_pressure;Samples;Min_cycle;Max_cycle;Signal;HPM_P1;HPM_P2
2023/05/19 00:01:07;;;;;;;9.50;3.95;;;11.70;99.90;;;;;;5063570;28;20029;-71
2023/05/19 00:03:36;;;;;;;13.00;3.88;;;11.70;99.90;;;;;;5064408;28;20029;-72
2023/05/19 00:06:03;;;;;;;13.20;4.18;;;11.60;99.90;;;;;;5067189;28;20035;-71
2023/05/19 00:08:33;;;;;;;10.95;4.47;;;11.60;99.90;;;;;;5069667;28;20122;-72
2023/05/19 00:10:59;;;;;;;10.85;4.60;;;11.60;99.90;;;;;;5066488;28;20063;-71
2023/05/19 00:13:26;;;;;;;11.95;4.18;;;11.60;99.90;;;;;;5065273;28;20571;-71
2023/05/19 00:15:52;;;;;;;12.88;4.35;;;11.60;99.90;;;;;;5066659;28;20543;-74
2023/05/19 00:18:18;;;;;;;11.30;4.90;;;11.60;99.90;;;;;;5069715;28;20063;-72
2023/05/19 00:20:43;;;;;;;16.58;4.70;;;11.60;99.90;;;;;;5064900;28;20036;-72
2023/05/19 00:23:10;;;;;;;13.25;4.25;;;11.60;99.90;;;;;;5066495;28;20036;-71
2023/05/19 00:25:35;;;;;;;14.20;4.38;;;11.70;99.90;;;;;;5068624;28;20111;-72
2023/05/19 00:28:01;;;;;;;20.27;4.50;;;11.70;99.90;;;;;;5067497;28;20123;-71
2023/05/19 00:30:28;;;;;;;8.27;4.00;;;11.70;99.90;;;;;;5068084;28;20075;-73
2023/05/19 00:32:54;;;;;;;11.38;4.57;;;11.70;99.90;;;;;;5053263;28;20086;-74
2023/05/19 00:35:20;;;;;;;12.75;4.82;;;11.80;99.90;;;;;;5056499;28;20029;-72
2023/05/19 00:37:46;;;;;;;8.77;4.22;;;11.70;99.90;;;;;;5068171;28;20032;-71
2023/05/19 00:40:12;;;;;;;12.52;4.13;;;11.60;99.90;;;;;;5067113;28;20909;-72
2023/05/19 00:42:38;;;;;;;11.90;4.78;;;11.60;99.90;;;;;;5069507;28;20036;-71
2023/05/19 00:45:04;;;;;;;9.63;4.63;;;11.50;99.90;;;;;;5063566;28;20044;-71
2023/05/19 00:47:30;;;;;;;12.05;4.55;;;11.50;99.90;;;;;;5067330;28;20039;-71
2023/05/19 00:49:55;;;;;;;14.88;4.40;;;11.50;99.90;;;;;;5068061;28;20036;-72
2023/05/19 00:52:21;;;;;;;10.93;4.47;;;11.40;99.90;;;;;;5062426;28;20047;-71
2023/05/19 00:54:50;;;;;;;11.52;4.15;;;11.40;99.90;;;;;;5067423;28;20082;-72
2023/05/19 00:57:15;;;;;;;9.18;4.72;;;11.40;99.90;;;;;;5068758;28;20044;-71
2023/05/19 00:59:41;;;;;;;9.30;3.85;;;11.40;99.90;;;;;;5066706;28;20467;-72
2023/05/19 01:02:07;;;;;;;10.43;4.43;;;11.40;99.90;;;;;;5053179;28;20053;-72
2023/05/19 01:04:36;;;;;;;13.95;4.28;;;11.40;99.90;;;;;;5064535;28;20033;-72
2023/05/19 01:07:02;;;;;;;12.33;4.37;;;11.40;99.90;;;;;;5065817;28;20148;-70
2023/05/19 01:09:29;;;;;;;12.43;4.65;;;11.30;99.90;;;;;;5062964;28;20111;-71
2023/05/19 01:11:55;;;;;;;13.77;4.38;;;11.30;99.90;;;;;;5061091;28;20024;-75
2023/05/19 01:14:21;;;;;;;9.85;4.40;;;11.30;99.90;;;;;;5066801;28;20427;-72
2023/05/19 01:16:55;;;;;;;18.35;4.70;;;11.20;99.90;;;;;;5066816;28;20526;-71
2023/05/19 01:19:39;;;;;;;9.80;4.57;;;11.10;99.90;;;;;;5067328;28;20075;-72
2023/05/19 01:22:41;;;;;;;9.82;4.35;;;11.10;99.90;;;;;;5059780;28;20061;-71
2023/05/19 01:25:19;;;;;;;9.75;4.18;;;11.10;99.90;;;;;;5047101;28;20033;-71
2023/05/19 01:28:03;;;;;;;12.65;4.28;;;11.00;99.90;;;;;;5054140;28;20376;-71
2023/05/19 01:30:41;;;;;;;14.43;4.47;;;11.00;99.90;;;;;;5063884;28;20086;-71
2023/05/19 01:33:10;;;;;;;8.98;4.15;;;10.90;99.90;;;;;;5055945;28;20036;-71
2023/05/19 01:35:37;;;;;;;8.75;4.30;;;10.90;99.90;;;;;;5067873;28;20032;-71
2023/05/19 01:38:06;;;;;;;12.02;4.30;;;10.90;99.90;;;;;;5065925;28;20036;-72
2023/05/19 01:40:32;;;;;;;8.52;4.60;;;10.90;99.90;;;;;;5063489;28;20074;-72
2023/05/19 01:43:00;;;;;;;13.88;5.45;;;10.90;99.90;;;;;;5056092;28;20032;-72
2023/05/19 01:45:28;;;;;;;9.70;4.57;;;10.90;99.90;;;;;;5068134;28;20492;-70
2023/05/19 01:47:57;;;;;;;8.23;4.25;;;10.90;99.90;;;;;;5066479;28;20068;-76
2023/05/19 01:50:22;;;;;;;10.27;4.57;;;10.90;99.90;;;;;;5062875;28;20036;-71
2023/05/19 01:52:48;;;;;;;13.65;4.15;;;10.90;99.90;;;;;;5065564;28;20085;-72
2023/05/19 01:55:14;;;;;;;10.10;4.47;;;10.90;99.90;;;;;;5067350;28;20031;-72
2023/05/19 01:57:43;;;;;;;9.05;4.75;;;10.90;99.90;;;;;;5062175;28;20051;-72
2023/05/19 02:00:08;;;;;;;11.07;4.40;;;10.90;99.90;;;;;;5054604;28;20520;-72
2023/05/19 02:03:00;;;;;;;11.10;4.20;;;10.80;99.90;;;;;;5053540;28;20079;-72
2023/05/19 02:05:43;;;;;;;11.10;3.95;;;10.80;99.90;;;;;;5061636;28;20074;-72
2023/05/19 02:08:28;;;;;;;10.18;4.28;;;10.80;99.90;;;;;;5061504;28;20072;-71
2023/05/19 02:11:02;;;;;;;12.60;4.75;;;10.90;99.90;;;;;;5065167;28;20033;-76
2023/05/19 02:13:34;;;;;;;12.07;4.90;;;10.80;99.90;;;;;;5066348;28;20114;-71
2023/05/19 02:16:04;;;;;;;12.05;4.15;;;10.80;99.90;;;;;;5068013;28;20025;-72
2023/05/19 02:18:32;;;;;;;9.75;4.05;;;10.80;99.90;;;;;;5063484;28;20029;-71
2023/05/19 02:20:58;;;;;;;18.92;4.57;;;10.90;99.90;;;;;;5061514;28;20541;-75
2023/05/19 02:23:23;;;;;;;9.48;4.20;;;11.00;99.90;;;;;;5062669;28;20111;-72
2023/05/19 02:25:49;;;;;;;10.75;4.57;;;11.00;99.90;;;;;;5062562;28;20373;-71
2023/05/19 02:28:15;;;;;;;13.55;4.25;;;11.00;99.90;;;;;;5057506;28;20119;-71
2023/05/19 02:30:40;;;;;;;10.85;4.43;;;11.00;99.90;;;;;;5062922;28;20453;-72
2023/05/19 02:33:06;;;;;;;11.63;4.18;;;10.90;99.90;;;;;;5065330;28;20047;-71
2023/05/19 02:35:32;;;;;;;8.65;4.10;;;10.90;99.90;;;;;;5065932;28;20132;-72
2023/05/19 02:37:58;;;;;;;12.00;4.45;;;10.90;99.90;;;;;;5066479;28;20075;-75
2023/05/19 02:40:24;;;;;;;8.90;4.25;;;10.90;99.90;;;;;;5067072;28;20056;-72
2023/05/19 02:42:49;;;;;;;10.73;4.45;;;10.80;99.90;;;;;;5064337;28;20100;-71
2023/05/19 02:45:15;;;;;;;11.65;4.75;;;10.80;99.90;;;;;;5067511;28;20482;-71
2023/05/19 02:47:40;;;;;;;11.93;4.53;;;10.80;99.90;;;;;;5061859;28;20048;-72
2023/05/19 02:50:07;;;;;;;11.77;4.72;;;10.80;99.90;;;;;;5051299;28;20052;-72
2023/05/19 02:52:33;;;;;;;12.70;4.63;;;10.80;99.90;;;;;;5055768;28;20032;-71
2023/05/19 02:54:58;;;;;;;14.07;4.78;;;10.80;99.90;;;;;;5071258;28;20020;-76
2023/05/19 02:57:25;;;;;;;11.45;4.97;;;10.70;99.90;;;;;;5066532;28;20388;-72
2023/05/19 02:59:51;;;;;;;11.13;4.45;;;10.80;99.90;;;;;;5060112;28;20094;-71
2023/05/19 03:02:16;;;;;;;12.95;4.88;;;10.80;99.90;;;;;;5060450;28;20053;-72
2023/05/19 03:04:42;;;;;;;8.90;4.68;;;10.80;99.90;;;;;;5071535;28;20044;-71
2023/05/19 03:07:09;;;;;;;13.82;5.05;;;10.80;99.90;;;;;;5065678;28;20242;-71
2023/05/19 03:09:37;;;;;;;10.07;4.20;;;10.80;99.90;;;;;;5070525;28;20025;-71
2023/05/19 03:12:05;;;;;;;11.35;4.35;;;10.90;99.90;;;;;;5068263;28;20116;-73
2023/05/19 03:14:33;;;;;;;9.43;4.03;;;10.90;99.90;;;;;;5070571;28;20025;-72
2023/05/19 03:16:59;;;;;;;10.23;4.43;;;10.90;99.90;;;;;;5068552;28;20029;-76
2023/05/19 03:19:26;;;;;;;8.73;4.40;;;10.90;99.90;;;;;;5069747;28;20460;-71
2023/05/19 03:21:51;;;;;;;12.77;4.70;;;10.90;99.90;;;;;;5068534;28;20044;-72
2023/05/19 03:24:17;;;;;;;10.32;4.63;;;11.00;99.90;;;;;;5070149;28;20037;-72
2023/05/19 03:26:43;;;;;;;9.30;4.70;;;11.00;99.90;;;;;;5068876;28;20040;-73
2023/05/19 03:29:08;;;;;;;9.70;4.50;;;11.00;99.90;;;;;;5063115;28;20032;-72
2023/05/19 03:31:36;;;;;;;11.07;4.55;;;11.00;99.90;;;;;;5061606;28;20032;-71
2023/05/19 03:34:02;;;;;;;9.50;4.50;;;11.00;99.90;;;;;;5067195;28;20044;-76
2023/05/19 03:36:30;;;;;;;13.25;4.40;;;10.90;99.90;;;;;;5071185;28;20032;-71
2023/05/19 03:38:57;;;;;;;10.25;4.75;;;10.90;99.90;;;;;;5064737;28;20510;-72
2023/05/19 03:41:23;;;;;;;12.65;4.70;;;10.90;99.90;;;;;;5067004;28;20082;-71
2023/05/19 03:43:48;;;;;;;12.70;4.25;;;10.90;99.90;;;;;;5063540;28;20071;-72
2023/05/19 03:46:14;;;;;;;10.43;4.70;;;10.90;99.90;;;;;;5068568;28;20112;-73
2023/05/19 03:48:40;;;;;;;12.85;4.47;;;10.90;99.90;;;;;;5066796;28;20032;-71
2023/05/19 03:51:06;;;;;;;11.57;4.50;;;10.80;99.90;;;;;;5068328;28;20490;-71
2023/05/19 03:53:31;;;;;;;9.70;4.72;;;10.80;99.90;;;;;;5055063;28;20040;-71
2023/05/19 03:55:58;;;;;;;12.20;4.97;;;10.70;99.90;;;;;;5067161;28;20032;-71
2023/05/19 03:58:24;;;;;;;10.85;4.65;;;10.60;99.90;;;;;;5060949;28;20539;-72
2023/05/19 04:00:50;;;;;;;12.05;4.60;;;10.60;99.90;;;;;;5066650;28;20021;-71
2023/05/19 04:03:15;;;;;;;11.35;4.70;;;10.50;99.90;;;;;;5058220;28;20045;-74
2023/05/19 04:05:41;;;;;;;9.30;4.68;;;10.50;99.90;;;;;;5067662;28;20040;-72
2023/05/19 04:08:07;;;;;;;13.38;4.40;;;10.40;99.90;;;;;;5068570;28;20206;-72
2023/05/19 04:10:32;;;;;;;15.90;5.05;;;10.40;99.90;;;;;;5066647;28;20131;-72
2023/05/19 04:12:58;;;;;;;12.00;4.93;;;10.30;99.90;;;;;;5066179;28;20531;-73
2023/05/19 04:15:23;;;;;;;12.50;5.00;;;10.30;99.90;;;;;;5068295;28;20028;-71
2023/05/19 04:17:49;;;;;;;14.50;5.10;;;10.30;99.90;;;;;;5066296;28;20148;-72
2023/05/19 04:20:15;;;;;;;11.80;5.35;;;10.20;99.90;;;;;;5069206;28;20040;-71
2023/05/19 04:22:40;;;;;;;13.32;5.00;;;10.20;99.90;;;;;;5054936;28;20373;-73
2023/05/19 04:25:07;;;;;;;9.27;5.00;;;10.20;99.90;;;;;;5066173;28;20154;-75
2023/05/19 04:27:37;;;;;;;11.45;4.50;;;10.20;99.90;;;;;;5063088;28;20501;-72
2023/05/19 04:30:04;;;;;;;11.13;4.50;;;10.20;99.90;;;;;;5067135;28;20040;-76
2023/05/19 04:32:29;;;;;;;10.70;4.53;;;10.20;99.90;;;;;;5062816;28;20036;-72
2023/05/19 04:34:57;;;;;;;11.73;4.68;;;10.20;99.90;;;;;;5066627;28;20727;-71
2023/05/19 04:37:24;;;;;;;12.23;5.18;;;10.20;99.90;;;;;;5065780;28;20649;-72
2023/05/19 04:39:51;;;;;;;11.57;5.00;;;10.20;99.90;;;;;;5051831;28;20488;-73
2023/05/19 04:42:19;;;;;;;10.10;4.72;;;10.30;99.90;;;;;;5056833;28;20028;-71
2023/05/19 04:44:47;;;;;;;14.85;5.20;;;10.30;99.90;;;;;;5068934;28;20035;-71
2023/05/19 04:47:14;;;;;;;11.00;4.80;;;10.40;99.90;;;;;;5066032;28;20040;-72
2023/05/19 04:49:40;;;;;;;13.70;4.82;;;10.60;99.90;;;;;;5055188;28;20484;-72
2023/05/19 04:52:09;;;;;;;11.85;4.05;;;10.70;99.90;;;;;;5061362;28;20024;-76
2023/05/19 04:54:36;;;;;;;12.48;4.80;;;10.70;99.90;;;;;;5061212;28;20020;-71
2023/05/19 04:57:02;;;;;;;11.25;4.30;;;10.60;99.90;;;;;;5049210;28;20037;-72
2023/05/19 04:59:28;;;;;;;10.55;4.20;;;10.60;99.90;;;;;;5059361;28;20138;-72
2023/05/19 05:01:54;;;;;;;14.43;4.70;;;10.70;99.90;;;;;;5056966;28;20572;-72
2023/05/19 05:04:20;;;;;;;15.15;4.28;;;10.80;99.90;;;;;;5062326;28;20048;-72
2023/05/19 05:06:47;;;;;;;12.23;4.93;;;10.90;99.90;;;;;;5058909;28;20072;-72
2023/05/19 05:09:17;;;;;;;10.60;4.75;;;10.90;99.90;;;;;;5058922;28;20034;-71
2023/05/19 05:11:43;;;;;;;12.00;4.43;;;11.00;99.90;;;;;;5062873;28;20039;-72
2023/05/19 05:14:09;;;;;;;15.35;4.82;;;11.10;99.90;;;;;;5056731;28;20378;-76
2023/05/19 05:16:35;;;;;;;12.32;4.20;;;11.10;99.90;;;;;;5067707;28;20038;-71
2023/05/19 05:19:01;;;;;;;10.70;4.35;;;11.30;99.90;;;;;;5064630;28;20421;-72
2023/05/19 05:21:28;;;;;;;17.08;4.57;;;11.40;99.90;;;;;;5067367;28;20043;-72
2023/05/19 05:23:54;;;;;;;12.40;4.35;;;11.60;99.90;;;;;;5067264;28;20465;-72
2023/05/19 05:26:22;;;;;;;13.82;4.85;;;11.60;99.90;;;;;;5056270;28;20068;-71
2023/05/19 05:28:50;;;;;;;12.13;4.30;;;11.50;99.90;;;;;;5050666;28;20143;-72
2023/05/19 05:31:16;;;;;;;13.25;4.95;;;11.50;99.90;;;;;;5061670;28;20377;-72
2023/05/19 05:33:42;;;;;;;14.95;5.05;;;11.50;99.90;;;;;;5066433;28;20036;-75
2023/05/19 05:36:08;;;;;;;13.43;5.25;;;11.40;99.90;;;;;;5061157;28;20475;-75
2023/05/19 05:38:34;;;;;;;12.45;5.20;;;11.30;99.90;;;;;;5064158;28;20032;-72
2023/05/19 05:41:01;;;;;;;20.75;5.18;;;11.20;99.90;;;;;;5048958;28;20021;-71
2023/05/19 05:43:27;;;;;;;14.23;4.95;;;11.10;99.90;;;;;;5048083;28;20154;-71
2023/05/19 05:45:53;;;;;;;12.02;4.65;;;10.90;99.90;;;;;;5062047;28;20040;-72
2023/05/19 05:48:19;;;;;;;9.52;4.90;;;10.80;99.90;;;;;;5064331;28;20059;-71
2023/05/19 05:50:46;;;;;;;15.27;5.18;;;10.90;99.90;;;;;;5067923;28;20032;-71
2023/05/19 05:53:18;;;;;;;12.48;5.20;;;10.90;99.90;;;;;;5065385;28;20090;-71
2023/05/19 05:55:48;;;;;;;15.60;5.00;;;10.90;99.90;;;;;;5060082;28;20025;-71
2023/05/19 05:58:14;;;;;;;12.98;4.82;;;10.90;99.90;;;;;;5061379;28;20036;-71
2023/05/19 06:00:44;;;;;;;18.00;4.97;;;10.90;99.90;;;;;;5066373;28;20080;-71
2023/05/19 06:03:10;;;;;;;16.35;4.60;;;11.00;99.90;;;;;;5047979;28;20053;-76
2023/05/19 06:05:36;;;;;;;14.45;4.57;;;11.00;99.90;;;;;;5054163;28;20552;-72
2023/05/19 06:08:02;;;;;;;10.85;4.30;;;11.10;99.90;;;;;;5065318;28;20396;-71
2023/05/19 06:10:28;;;;;;;13.88;4.97;;;11.10;99.90;;;;;;5059815;28;20029;-73
2023/05/19 06:12:54;;;;;;;11.23;4.25;;;11.20;99.90;;;;;;5057746;28;20177;-71
2023/05/19 06:15:21;;;;;;;11.43;4.63;;;11.20;99.90;;;;;;5065130;28;20032;-71
2023/05/19 06:17:46;;;;;;;11.10;4.40;;;11.20;99.90;;;;;;5059997;28;20040;-72
2023/05/19 06:20:12;;;;;;;9.48;4.32;;;11.20;99.90;;;;;;5066177;28;20025;-78
2023/05/19 06:22:38;;;;;;;12.85;4.45;;;11.30;99.90;;;;;;5059353;28;20509;-72
2023/05/19 06:25:05;;;;;;;12.18;4.60;;;11.30;99.90;;;;;;5068309;28;20024;-73
2023/05/19 06:27:31;;;;;;;11.00;3.90;;;11.30;99.90;;;;;;5067502;28;20036;-72
2023/05/19 06:29:57;;;;;;;11.55;4.32;;;11.20;99.90;;;;;;5068501;28;20487;-72
2023/05/19 06:32:22;;;;;;;14.10;4.45;;;11.30;99.90;;;;;;5066345;28;20033;-72
2023/05/19 06:34:52;;;;;;;13.00;5.30;;;11.40;99.90;;;;;;5064632;28;20035;-72
2023/05/19 06:37:22;;;;;;;10.75;4.18;;;11.60;99.90;;;;;;5064249;28;20041;-72
2023/05/19 06:39:52;;;;;;;12.82;4.53;;;11.60;99.90;;;;;;5061061;28;20181;-72
2023/05/19 06:42:22;;;;;;;10.38;4.47;;;11.60;99.90;;;;;;5053749;28;20048;-71
2023/05/19 06:44:49;;;;;;;11.43;4.47;;;11.60;99.90;;;;;;5065691;28;20100;-72
2023/05/19 06:47:15;;;;;;;13.55;4.65;;;11.60;99.90;;;;;;5060167;28;20041;-75
2023/05/19 06:49:41;;;;;;;13.88;4.47;;;11.70;99.90;;;;;;5058938;28;20028;-73
2023/05/19 06:52:07;;;;;;;11.05;4.28;;;11.70;99.90;;;;;;5065671;28;20085;-71
2023/05/19 06:54:32;;;;;;;8.52;4.30;;;11.80;99.90;;;;;;5062725;28;20024;-72
2023/05/19 06:56:58;;;;;;;12.60;4.07;;;11.90;99.90;;;;;;5061735;28;20089;-73
2023/05/19 06:59:24;;;;;;;12.10;4.05;;;12.00;99.90;;;;;;5052573;28;20033;-72
2023/05/19 07:01:49;;;;;;;12.60;4.63;;;12.10;99.90;;;;;;5057559;28;20048;-74
2023/05/19 07:04:15;;;;;;;15.32;5.22;;;12.10;99.90;;;;;;5063004;28;20035;-75
2023/05/19 07:06:41;;;;;;;14.00;4.22;;;12.00;99.90;;;;;;5053604;28;20048;-72
2023/05/19 07:09:07;;;;;;;13.52;5.25;;;12.00;99.90;;;;;;5059202;28;20044;-74
2023/05/19 07:11:33;;;;;;;15.20;5.30;;;12.10;99.90;;;;;;5061513;28;20012;-71
2023/05/19 07:13:59;;;;;;;15.38;5.35;;;12.20;99.90;;;;;;5062818;28;20036;-73
2023/05/19 07:16:24;;;;;;;15.57;5.03;;;12.40;99.90;;;;;;5058706;28;20409;-72
2023/05/19 07:18:50;;;;;;;14.45;4.72;;;12.60;99.90;;;;;;5046294;28;20068;-73
2023/05/19 07:21:16;;;;;;;11.45;4.18;;;12.60;99.90;;;;;;5059432;28;20033;-75
2023/05/19 07:23:42;;;;;;;15.38;4.78;;;12.70;99.90;;;;;;5064941;28;20472;-72
2023/05/19 07:26:07;;;;;;;20.30;5.40;;;12.80;99.90;;;;;;5067748;28;20036;-72
2023/05/19 07:28:33;;;;;;;19.40;5.57;;;12.50;99.90;;;;;;5066956;28;20023;-70
2023/05/19 07:30:59;;;;;;;14.73;4.82;;;12.40;99.90;;;;;;5063023;28;20032;-72
2023/05/19 07:33:25;;;;;;;14.82;5.55;;;12.20;99.90;;;;;;5047264;28;20040;-72
2023/05/19 07:35:52;;;;;;;10.43;4.60;;;12.30;99.90;;;;;;5056316;28;20413;-72
2023/05/19 07:38:17;;;;;;;11.98;5.00;;;12.40;99.90;;;;;;5069140;28;20438;-73
2023/05/19 07:40:43;;;;;;;18.48;4.72;;;12.50;99.90;;;;;;5071101;28;20024;-73
2023/05/19 07:43:10;;;;;;;12.32;4.55;;;12.50;99.90;;;;;;5071203;28;20025;-72
2023/05/19 07:45:36;;;;;;;11.80;5.38;;;12.60;99.90;;;;;;5070121;28;20032;-71
2023/05/19 07:48:01;;;;;;;12.10;4.70;;;12.70;99.90;;;;;;5069600;28;20076;-71
2023/05/19 07:50:27;;;;;;;21.52;9.30;;;12.80;99.90;;;;;;5068271;28;20075;-71
2023/05/19 07:52:53;;;;;;;24.33;10.32;;;12.80;99.90;;;;;;5069469;28;20032;-73
2023/05/19 07:55:21;;;;;;;16.65;6.68;;;12.70;99.90;;;;;;5070416;28;20520;-71
2023/05/19 07:57:48;;;;;;;25.35;7.65;;;12.60;99.90;;;;;;5061258;28;20506;-71
2023/05/19 08:00:14;;;;;;;24.65;7.15;;;12.50;99.90;;;;;;5061813;28;20032;-72
2023/05/19 08:02:40;;;;;;;25.67;8.15;;;12.50;99.90;;;;;;5060481;28;20469;-72
2023/05/19 08:05:08;;;;;;;14.68;6.10;;;12.70;99.90;;;;;;5054678;28;20035;-73
2023/05/19 08:07:34;;;;;;;14.85;5.30;;;12.90;99.90;;;;;;5064227;28;20056;-74
2023/05/19 08:09:59;;;;;;;19.85;7.25;;;12.70;99.90;;;;;;5055189;28;20033;-73
2023/05/19 08:12:25;;;;;;;12.60;4.43;;;12.70;99.90;;;;;;5052215;28;20033;-73
2023/05/19 08:14:51;;;;;;;22.65;9.70;;;12.70;99.90;;;;;;5059820;28;20065;-74
2023/05/19 08:17:17;;;;;;;14.55;6.35;;;12.70;99.90;;;;;;5054055;28;20025;-78
2023/05/19 08:19:42;;;;;;;13.52;5.00;;;12.70;99.90;;;;;;5054607;28;20028;-74
2023/05/19 08:22:08;;;;;;;17.88;5.57;;;12.70;99.90;;;;;;5058583;28;20104;-74
2023/05/19 08:24:34;;;;;;;27.30;5.85;;;12.70;99.90;;;;;;5052520;28;20025;-74
2023/05/19 08:26:59;;;;;;;11.43;5.25;;;12.70;99.90;;;;;;5049791;28;20466;-72
2023/05/19 08:29:25;;;;;;;13.82;5.32;;;12.70;99.90;;;;;;5058414;28;20081;-76
2023/05/19 08:31:51;;;;;;;18.60;5.85;;;12.50;99.90;;;;;;5057655;28;20457;-75
2023/05/19 08:34:21;;;;;;;14.07;5.03;;;12.60;99.90;;;;;;5063733;28;20024;-78
2023/05/19 08:36:46;;;;;;;14.18;5.15;;;12.60;99.90;;;;;;5049770;28;20461;-72
2023/05/19 08:39:13;;;;;;;13.82;5.30;;;12.80;99.90;;;;;;5060797;28;20055;-73
2023/05/19 08:41:38;;;;;;;16.85;5.22;;;12.80;99.90;;;;;;5050531;28;21048;-73
2023/05/19 08:44:04;;;;;;;11.48;4.78;;;12.90;99.90;;;;;;5061623;28;20032;-77
2023/05/19 08:46:31;;;;;;;15.15;5.57;;;13.10;99.90;;;;;;5048364;28;20501;-73
2023/05/19 08:49:09;;;;;;;14.45;5.13;;;13.20;99.90;;;;;;5066810;28;20028;-74
2023/05/19 08:51:56;;;;;;;15.60;5.25;;;13.10;99.90;;;;;;5064039;28;20096;-73
2023/05/19 08:54:24;;;;;;;16.30;5.43;;;13.20;99.90;;;;;;5053162;28;20106;-72
2023/05/19 08:56:50;;;;;;;14.70;5.32;;;13.20;99.90;;;;;;5057073;28;20025;-73
2023/05/19 08:59:17;;;;;;;15.45;4.85;;;13.30;99.90;;;;;;5067479;28;20476;-78
2023/05/19 09:01:45;;;;;;;14.10;4.85;;;13.30;99.90;;;;;;5061758;28;20080;-73
2023/05/19 09:04:11;;;;;;;15.68;5.47;;;13.30;99.90;;;;;;5055652;28;20044;-74
2023/05/19 09:06:39;;;;;;;17.45;4.82;;;13.30;99.90;;;;;;5061567;28;20036;-74
2023/05/19 09:09:09;;;;;;;11.07;4.85;;;13.40;99.90;;;;;;5069169;28;20365;-73
2023/05/19 09:11:36;;;;;;;11.55;4.82;;;13.40;99.90;;;;;;5054634;28;20155;-72
2023/05/19 09:14:02;;;;;;;10.95;5.00;;;13.60;99.90;;;;;;5062659;28;20041;-73
2023/05/19 09:16:28;;;;;;;11.82;5.00;;;13.80;99.90;;;;;;5048303;28;20029;-72
2023/05/19 09:18:55;;;;;;;21.55;5.15;;;14.00;99.90;;;;;;5063229;28;20029;-72
2023/05/19 09:21:30;;;;;;;11.75;4.55;;;14.20;99.90;;;;;;5067678;28;20039;-73
2023/05/19 09:23:58;;;;;;;15.07;5.32;;;14.50;99.90;;;;;;5069321;28;20025;-72
2023/05/19 09:26:23;;;;;;;15.93;5.40;;;14.60;99.90;;;;;;5066794;28;20054;-73
2023/05/19 09:28:49;;;;;;;11.48;5.10;;;14.60;99.90;;;;;;5056807;28;20036;-72
2023/05/19 09:31:15;;;;;;;14.18;4.80;;;14.60;99.90;;;;;;5063873;28;20112;-72
2023/05/19 09:33:42;;;;;;;12.23;4.80;;;14.20;99.90;;;;;;5068149;28;20116;-73
2023/05/19 09:36:09;;;;;;;16.88;4.88;;;14.10;99.90;;;;;;5067711;28;20064;-74
2023/05/19 09:38:36;;;;;;;14.18;5.30;;;14.10;99.90;;;;;;5067466;28;20028;-72
2023/05/19 09:41:04;;;;;;;12.13;5.20;;;14.20;99.90;;;;;;5067247;28;20041;-73
2023/05/19 09:43:32;;;;;;;12.93;5.35;;;14.10;99.90;;;;;;5057059;28;20037;-76
2023/05/19 09:46:10;;;;;;;14.10;4.82;;;14.10;99.90;;;;;;5060112;28;20116;-75
2023/05/19 09:48:36;;;;;;;16.30;6.13;;;13.90;99.90;;;;;;5051624;28;20040;-72
2023/05/19 09:51:05;;;;;;;11.25;5.60;;;13.90;99.90;;;;;;5060686;28;20046;-72
2023/05/19 09:53:31;;;;;;;12.95;5.55;;;13.80;99.90;;;;;;5059206;28;20036;-76
2023/05/19 09:55:57;;;;;;;16.27;6.05;;;14.00;99.90;;;;;;5064561;28;20063;-72
2023/05/19 09:58:25;;;;;;;16.60;5.90;;;14.00;99.90;;;;;;5066786;28;20156;-74
2023/05/19 10:00:53;;;;;;;12.00;5.55;;;14.00;99.90;;;;;;5062663;28;20728;-72
2023/05/19 10:03:21;;;;;;;13.63;5.95;;;13.90;99.90;;;;;;5065657;28;20049;-76
2023/05/19 10:05:48;;;;;;;14.65;5.57;;;13.80;99.90;;;;;;5054043;28;20102;-73
2023/05/19 10:08:17;;;;;;;13.98;5.00;;;13.80;99.90;;;;;;5064716;28;20070;-73
2023/05/19 10:10:45;;;;;;;12.85;5.35;;;13.80;99.90;;;;;;5064498;28;20140;-73
2023/05/19 10:13:11;;;;;;;12.23;5.68;;;13.90;99.90;;;;;;5050131;28;20040;-72
2023/05/19 10:15:39;;;;;;;12.52;5.25;;;14.00;99.90;;;;;;5062929;28;20063;-73
2023/05/19 10:18:07;;;;;;;10.30;5.25;;;14.10;99.90;;;;;;5059243;28;20024;-73
2023/05/19 10:20:33;;;;;;;12.27;5.18;;;14.00;99.90;;;;;;5064895;28;20036;-73
2023/05/19 10:23:01;;;;;;;17.20;5.15;;;14.00;99.90;;;;;;5063699;28;20035;-72
2023/05/19 10:25:28;;;;;;;18.60;5.38;;;14.10;99.90;;;;;;5055343;28;20024;-74
2023/05/19 10:28:01;;;;;;;12.93;5.25;;;14.00;99.90;;;;;;5063095;28;20037;-78
2023/05/19 10:30:31;;;;;;;10.63;4.95;;;14.00;99.90;;;;;;5064075;28;20165;-73
2023/05/19 10:32:59;;;;;;;14.27;5.43;;;14.10;99.90;;;;;;5060805;28;20064;-73
2023/05/19 10:35:40;;;;;;;12.07;5.38;;;14.10;99.90;;;;;;5064435;28;20224;-73
2023/05/19 10:38:08;;;;;;;;;;;14.00;99.90;;;;;;5063204;28;20056;-73
2023/05/19 10:40:49;;;;;;;10.73;4.80;;;13.90;99.90;;;;;;5055043;28;19912;-72
2023/05/19 10:43:24;;;;;;;;;;;13.80;99.90;;;;;;5062445;28;20033;-73
2023/05/19 10:45:54;;;;;;;13.10;5.38;;;13.70;99.90;;;;;;5064907;28;19908;-73
2023/05/19 10:48:21;;;;;;;11.48;5.18;;;13.70;99.90;;;;;;5067084;28;20388;-73
2023/05/19 10:50:47;;;;;;;14.68;5.25;;;13.60;99.90;;;;;;5067471;28;20045;-73
2023/05/19 10:53:17;;;;;;;11.38;4.85;;;13.60;99.90;;;;;;5068146;28;20039;-74
2023/05/19 10:55:55;;;;;;;13.10;5.13;;;13.70;99.90;;;;;;5063845;28;20025;-74
2023/05/19 10:58:40;;;;;;;13.90;5.30;;;13.70;99.90;;;;;;5067374;28;20400;-73
2023/05/19 11:01:13;;;;;;;14.27;5.30;;;13.70;99.90;;;;;;5062352;28;20036;-74
2023/05/19 11:03:48;;;;;;;16.67;5.70;;;13.90;99.90;;;;;;5047430;28;20029;-74
2023/05/19 11:06:23;;;;;;;15.93;5.60;;;14.00;99.90;;;;;;5065260;28;20468;-73
2023/05/19 11:09:10;;;;;;;12.88;5.05;;;14.10;99.90;;;;;;5069971;28;20039;-74
2023/05/19 11:11:52;;;;;;;12.02;5.32;;;13.90;99.90;;;;;;5070356;28;20050;-74
2023/05/19 11:14:25;;;;;;;16.50;6.07;;;13.90;99.90;;;;;;5067926;28;20025;-74
2023/05/19 11:16:58;;;;;;;12.20;5.10;;;13.80;99.90;;;;;;5069775;28;20040;-75
2023/05/19 11:19:53;;;;;;;19.08;6.03;;;13.80;99.90;;;;;;5065461;28;20032;-77
2023/05/19 11:22:23;;;;;;;16.42;5.85;;;13.60;99.90;;;;;;5069660;28;20123;-75
2023/05/19 11:24:51;;;;;;;13.52;6.25;;;13.50;99.90;;;;;;5068986;28;20086;-74
2023/05/19 11:27:23;;;;;;;17.27;6.15;;;13.50;99.90;;;;;;5066724;28;20033;-73
2023/05/19 11:29:50;;;;;;;13.80;5.65;;;13.60;99.90;;;;;;5071113;28;20028;-73
2023/05/19 11:32:16;;;;;;;15.30;5.97;;;13.60;99.90;;;;;;5071348;28;20028;-73
2023/05/19 11:34:43;;;;;;;17.85;7.18;;;13.70;99.90;;;;;;5065052;28;20102;-72
2023/05/19 11:37:10;;;;;;;20.63;8.45;;;13.70;99.90;;;;;;5070016;28;20028;-73
2023/05/19 11:39:36;;;;;;;14.55;7.78;;;13.70;99.90;;;;;;5062731;28;20400;-73
2023/05/19 11:42:01;;;;;;;14.60;7.18;;;13.70;99.90;;;;;;5068001;28;20024;-72
2023/05/19 11:44:27;;;;;;;16.25;6.75;;;13.70;99.90;;;;;;5056992;28;20074;-79
2023/05/19 11:46:53;;;;;;;13.50;5.72;;;13.80;99.90;;;;;;5067624;28;20038;-72
2023/05/19 11:49:18;;;;;;;14.32;6.20;;;13.90;99.90;;;;;;5067942;28;20538;-73
2023/05/19 11:51:45;;;;;;;16.20;6.20;;;14.00;99.90;;;;;;5058885;28;20222;-74
2023/05/19 11:54:11;;;;;;;16.73;6.13;;;14.00;99.90;;;;;;5051033;28;20025;-74
2023/05/19 11:56:43;;;;;;;12.65;5.93;;;13.90;99.90;;;;;;5065483;28;20090;-72
2023/05/19 11:59:09;;;;;;;23.08;8.10;;;13.90;99.90;;;;;;5067120;28;20044;-75
2023/05/19 12:01:35;;;;;;;14.50;6.40;;;13.90;99.90;;;;;;5062377;28;20095;-73
2023/05/19 12:04:01;;;;;;;14.57;5.93;;;14.00;99.90;;;;;;5062147;28;20564;-73
2023/05/19 12:06:28;;;;;;;21.17;5.90;;;13.90;99.90;;;;;;5053343;28;20064;-79
2023/05/19 12:08:54;;;;;;;18.60;6.40;;;13.90;99.90;;;;;;5065393;28;20059;-76
2023/05/19 12:11:20;;;;;;;20.02;6.53;;;13.80;99.90;;;;;;5067612;28;20039;-72
2023/05/19 12:13:53;;;;;;;16.60;6.65;;;13.80;99.90;;;;;;5067896;28;20032;-73
2023/05/19 12:16:22;;;;;;;19.60;6.10;;;13.90;99.90;;;;;;5070734;28;20086;-73
2023/05/19 12:18:47;;;;;;;27.75;6.88;;;14.00;99.90;;;;;;5067351;28;20492;-73
2023/05/19 12:21:14;;;;;;;16.90;6.10;;;14.10;99.90;;;;;;5063963;28;20035;-72
2023/05/19 12:23:40;;;;;;;13.98;5.03;;;14.00;99.90;;;;;;5062235;28;20033;-73
2023/05/19 12:26:06;;;;;;;13.23;6.10;;;14.00;99.90;;;;;;5055213;28;20056;-74
2023/05/19 12:28:32;;;;;;;11.98;5.20;;;14.00;99.90;;;;;;5064828;28;20517;-76
2023/05/19 12:30:57;;;;;;;10.50;4.80;;;14.20;99.90;;;;;;5057742;28;20025;-72
2023/05/19 12:33:24;;;;;;;11.70;5.43;;;14.30;99.90;;;;;;5060344;28;20116;-76
2023/05/19 12:35:50;;;;;;;14.43;5.40;;;14.40;99.90;;;;;;5055693;28;20099;-77
2023/05/19 12:38:18;;;;;;;15.25;6.47;;;14.40;99.90;;;;;;5063248;28;20036;-73
2023/05/19 12:40:44;;;;;;;15.38;6.82;;;14.30;99.90;;;;;;5062530;28;20051;-75